Time;durP1;ratioP1;P1;durP2;ratioP2;P2;SDS_P1;SDS_P2;PMS_P1;PMS_P2;Temp;Humidity;BMP_temperature;BMP_pressure;BME280_temperature;BME280_humidity;BME280_pressure;Samples;Min_cycle;Max_cycle;Signal;HPM_P1;HPM_P2
2023/12/16 00:00:21;;;;;;;12.35;2.63;;;7.80;83.60;;;;;;5040360;28;20046;-76
2023/12/16 00:02:48;;;;;;;8.40;2.08;;;7.80;83.40;;;;;;5039451;28;20057;-76
2023/12/16 00:05:14;;;;;;;8.83;2.40;;;7.80;83.20;;;;;;5041321;28;20136;-76
2023/12/16 00:07:41;;;;;;;7.45;2.00;;;7.80;83.30;;;;;;5034586;28;20275;-76
2023/12/16 00:10:10;;;;;;;8.60;2.30;;;7.80;83.30;;;;;;5035848;28;20057;-76
2023/12/16 00:12:38;;;;;;;11.63;2.33;;;7.80;83.20;;;;;;5024996;28;20053;-76
2023/12/16 00:15:06;;;;;;;8.55;1.98;;;7.80;83.00;;;;;;5057348;28;20054;-76
2023/12/16 00:17:33;;;;;;;7.67;2.10;;;7.80;82.80;;;;;;5040462;28;20050;-76
2023/12/16 00:20:00;;;;;;;8.73;2.00;;;7.80;82.90;;;;;;5039736;28;20751;-76
2023/12/16 00:22:27;;;;;;;9.48;2.20;;;7.80;82.70;;;;;;5041215;28;20045;-76
2023/12/16 00:24:53;;;;;;;8.55;2.05;;;7.80;82.60;;;;;;5042458;28;20544;-76
2023/12/16 00:27:20;;;;;;;8.65;1.70;;;7.80;82.50;;;;;;5046615;28;20349;-76
2023/12/16 00:29:49;;;;;;;13.77;2.00;;;7.80;82.30;;;;;;5036694;28;20132;-76
2023/12/16 00:32:15;;;;;;;8.30;1.90;;;7.80;82.30;;;;;;5039857;28;20716;-76
2023/12/16 00:34:42;;;;;;;8.70;2.00;;;7.80;82.10;;;;;;5030057;28;20505;-76
2023/12/16 00:37:09;;;;;;;9.00;2.00;;;7.80;81.80;;;;;;5039108;28;20057;-76
2023/12/16 00:39:36;;;;;;;9.85;1.90;;;7.80;81.50;;;;;;5033805;28;20141;-76
2023/12/16 00:42:03;;;;;;;9.77;2.20;;;7.80;81.60;;;;;;5040695;28;20045;-76
2023/12/16 00:44:31;;;;;;;8.18;1.60;;;7.80;81.00;;;;;;5041175;28;20245;-76
2023/12/16 00:46:59;;;;;;;8.32;1.80;;;7.80;80.90;;;;;;5037466;28;20046;-76
2023/12/16 00:49:26;;;;;;;8.10;1.45;;;7.80;81.00;;;;;;5036013;28;20361;-76
2023/12/16 00:51:53;;;;;;;6.95;1.45;;;7.80;81.00;;;;;;5039359;28;20559;-76
2023/12/16 00:54:20;;;;;;;8.57;1.73;;;7.80;80.60;;;;;;5058684;28;20060;-76
2023/12/16 00:56:47;;;;;;;8.05;1.40;;;7.80;80.40;;;;;;5038823;28;20257;-76
2023/12/16 00:59:14;;;;;;;8.70;1.80;;;7.80;80.30;;;;;;5043681;28;20081;-76
2023/12/16 01:01:41;;;;;;;7.18;1.65;;;7.80;80.10;;;;;;5036739;28;20062;-76
2023/12/16 01:04:09;;;;;;;5.90;1.23;;;7.80;80.20;;;;;;5031868;28;20058;-76
2023/12/16 01:06:36;;;;;;;7.63;1.63;;;7.80;80.30;;;;;;5052011;28;20768;-76
2023/12/16 01:09:03;;;;;;;7.30;1.85;;;7.70;80.10;;;;;;5026235;28;20261;-76
2023/12/16 01:11:31;;;;;;;9.27;1.50;;;7.70;80.00;;;;;;5040526;28;20054;-76
2023/12/16 01:13:58;;;;;;;10.05;1.73;;;7.70;80.00;;;;;;5041161;28;20049;-76
2023/12/16 01:16:25;;;;;;;7.20;1.63;;;7.70;80.00;;;;;;5042023;28;20055;-76
2023/12/16 01:18:52;;;;;;;9.00;1.90;;;7.60;80.00;;;;;;5048562;28;20053;-76
2023/12/16 01:21:21;;;;;;;10.63;1.88;;;7.60;79.80;;;;;;5046180;28;20340;-76
2023/12/16 01:23:47;;;;;;;10.02;1.92;;;7.60;79.80;;;;;;5043378;28;20535;-76
2023/12/16 01:26:14;;;;;;;8.15;2.20;;;7.60;80.00;;;;;;5037323;28;20053;-76
2023/12/16 01:28:43;;;;;;;8.57;2.35;;;7.60;79.90;;;;;;5048960;28;20057;-76
2023/12/16 01:31:10;;;;;;;9.50;1.90;;;7.60;79.80;;;;;;5043687;28;20508;-76
2023/12/16 01:33:37;;;;;;;9.60;2.10;;;7.60;79.80;;;;;;5038591;28;20351;-76
2023/12/16 01:36:05;;;;;;;8.77;1.85;;;7.60;79.60;;;;;;5046209;28;20056;-76
2023/12/16 01:38:34;;;;;;;8.75;1.95;;;7.50;79.60;;;;;;5047204;28;20056;-76
2023/12/16 01:41:01;;;;;;;13.32;2.25;;;7.50;79.50;;;;;;5037071;28;20526;-76
2023/12/16 01:43:28;;;;;;;6.77;2.10;;;7.50;79.60;;;;;;5042789;28;20053;-76
2023/12/16 01:46:02;;;;;;;8.63;1.80;;;7.50;79.60;;;;;;5038572;28;20282;-76
2023/12/16 01:48:30;;;;;;;10.02;2.03;;;7.50;79.50;;;;;;5039908;28;20057;-76
2023/12/16 01:50:57;;;;;;;7.32;1.80;;;7.50;79.40;;;;;;5048005;28;20179;-76
2023/12/16 01:53:26;;;;;;;14.15;2.08;;;7.50;79.30;;;;;;5048993;28;20064;-76
2023/12/16 01:55:55;;;;;;;7.23;1.93;;;7.50;79.40;;;;;;5039099;28;20049;-76
2023/12/16 01:58:23;;;;;;;10.40;2.13;;;7.40;79.40;;;;;;5046998;28;20295;-76
2023/12/16 02:00:52;;;;;;;9.93;2.03;;;7.40;79.50;;;;;;5049740;28;20053;-76
2023/12/16 02:03:20;;;;;;;6.70;1.35;;;7.40;79.50;;;;;;5045251;28;20054;-76
2023/12/16 02:05:47;;;;;;;7.60;1.30;;;7.40;79.40;;;;;;5049111;28;20057;-76
2023/12/16 02:08:14;;;;;;;11.87;2.40;;;7.40;79.30;;;;;;5047590;28;20049;-76
2023/12/16 02:10:42;;;;;;;5.93;1.50;;;7.40;79.00;;;;;;5049441;28;20411;-75
2023/12/16 02:13:10;;;;;;;9.70;1.90;;;7.30;79.10;;;;;;5045666;28;20084;-75
2023/12/16 02:15:37;;;;;;;10.15;2.20;;;7.30;79.10;;;;;;5033706;28;20121;-77
2023/12/16 02:18:04;;;;;;;10.25;1.80;;;7.30;78.90;;;;;;5035067;28;20061;-76
2023/12/16 02:20:31;;;;;;;8.27;1.60;;;7.30;78.90;;;;;;5053591;28;20154;-75
2023/12/16 02:23:01;;;;;;;9.93;1.90;;;7.20;79.00;;;;;;5039978;28;20280;-76
2023/12/16 02:25:30;;;;;;;8.65;2.15;;;7.20;79.00;;;;;;5034718;28;20073;-76
2023/12/16 02:27:57;;;;;;;12.07;1.85;;;7.20;78.80;;;;;;5047062;28;20128;-76
2023/12/16 02:30:24;;;;;;;12.73;2.00;;;7.20;78.70;;;;;;5026023;28;20056;-76
2023/12/16 02:32:52;;;;;;;5.80;1.30;;;7.20;78.50;;;;;;5030533;28;20038;-76
2023/12/16 02:35:19;;;;;;;9.05;1.58;;;7.20;78.60;;;;;;5040251;28;20277;-76
2023/12/16 02:37:46;;;;;;;10.32;1.50;;;7.20;78.60;;;;;;5024467;28;20385;-76
2023/12/16 02:40:13;;;;;;;11.77;2.10;;;7.20;78.60;;;;;;5045644;28;20049;-76
2023/12/16 02:42:42;;;;;;;8.02;1.55;;;7.20;78.70;;;;;;5047653;28;20057;-76
2023/12/16 02:45:10;;;;;;;9.20;1.80;;;7.20;78.60;;;;;;5041959;28;20081;-76
2023/12/16 02:47:37;;;;;;;9.77;1.58;;;7.20;78.70;;;;;;5045348;28;21115;-76
2023/12/16 02:50:06;;;;;;;9.73;1.60;;;7.20;78.60;;;;;;5048767;28;20049;-76
2023/12/16 02:52:33;;;;;;;8.07;1.70;;;7.20;78.60;;;;;;5050120;28;20060;-76
2023/12/16 02:55:00;;;;;;;10.43;2.22;;;7.20;78.50;;;;;;5032229;28;20042;-76
2023/12/16 02:57:27;;;;;;;12.40;1.70;;;7.20;78.60;;;;;;5046016;28;20148;-76
2023/12/16 02:59:56;;;;;;;9.95;1.83;;;7.20;78.70;;;;;;5040236;28;20352;-76
2023/12/16 03:02:23;;;;;;;8.05;1.58;;;7.20;78.80;;;;;;5047375;28;20053;-76
2023/12/16 03:04:50;;;;;;;11.63;1.63;;;7.10;78.80;;;;;;5035622;28;20057;-76
2023/12/16 03:07:17;;;;;;;8.68;1.73;;;7.10;78.90;;;;;;5040935;28;20056;-76
2023/12/16 03:09:44;;;;;;;11.43;1.80;;;7.20;78.90;;;;;;5036457;28;20516;-76
2023/12/16 03:12:11;;;;;;;7.00;1.50;;;7.00;79.00;;;;;;5039447;28;20249;-76
2023/12/16 03:14:39;;;;;;;8.13;2.03;;;7.10;79.00;;;;;;5036326;28;20053;-76
2023/12/16 03:17:08;;;;;;;7.22;1.55;;;7.10;79.10;;;;;;5035562;28;20049;-76
2023/12/16 03:19:35;;;;;;;10.70;2.00;;;7.00;79.10;;;;;;5035223;28;20867;-76
2023/12/16 03:22:03;;;;;;;10.13;1.80;;;7.00;79.20;;;;;;5037115;28;20053;-76
2023/12/16 03:24:30;;;;;;;9.85;2.45;;;7.00;79.40;;;;;;5046476;28;20260;-75
2023/12/16 03:26:57;;;;;;;8.38;2.00;;;7.00;79.30;;;;;;5038580;28;20164;-76
2023/12/16 03:29:25;;;;;;;10.10;2.35;;;7.00;79.40;;;;;;5041518;28;20054;-76
2023/12/16 03:31:53;;;;;;;12.50;2.53;;;7.00;79.50;;;;;;5022383;28;20145;-76
2023/12/16 03:34:22;;;;;;;10.90;1.73;;;7.00;79.40;;;;;;5037493;28;20415;-76
2023/12/16 03:36:49;;;;;;;9.07;1.98;;;7.00;79.40;;;;;;5040630;28;20277;-76
2023/12/16 03:39:16;;;;;;;8.68;1.73;;;7.00;79.50;;;;;;5039682;28;20042;-76
2023/12/16 03:41:44;;;;;;;10.77;1.95;;;7.00;79.50;;;;;;5033927;28;20140;-76
2023/12/16 03:44:12;;;;;;;6.97;1.50;;;7.00;79.50;;;;;;5039412;28;20708;-76
2023/12/16 03:46:39;;;;;;;9.23;2.07;;;7.00;79.50;;;;;;5044320;28;20591;-76
2023/12/16 03:49:06;;;;;;;7.40;1.40;;;7.00;79.60;;;;;;5027766;28;20245;-76
2023/12/16 03:51:34;;;;;;;10.27;1.83;;;7.00;79.70;;;;;;5050540;28;20519;-76
2023/12/16 03:54:01;;;;;;;8.45;1.73;;;7.00;79.70;;;;;;5036102;28;20057;-75
2023/12/16 03:56:32;;;;;;;11.73;1.80;;;7.00;79.70;;;;;;5031732;28;20078;-76
2023/12/16 03:58:59;;;;;;;8.53;1.83;;;7.00;79.70;;;;;;5048197;28;20055;-76
2023/12/16 04:01:26;;;;;;;10.18;1.50;;;7.00;79.70;;;;;;5039893;28;20257;-76
2023/12/16 04:03:53;;;;;;;9.38;2.13;;;7.00;79.70;;;;;;5042712;28;20050;-76
2023/12/16 04:06:20;;;;;;;10.95;1.92;;;6.90;79.70;;;;;;5045672;28;20061;-76
2023/12/16 04:08:48;;;;;;;8.95;1.70;;;6.90;79.80;;;;;;5042902;28;20197;-76
2023/12/16 04:11:16;;;;;;;8.57;1.80;;;6.90;79.80;;;;;;5043374;28;20049;-76
2023/12/16 04:13:43;;;;;;;10.07;1.83;;;6.90;79.90;;;;;;5039749;28;20242;-76
2023/12/16 04:16:10;;;;;;;10.88;1.98;;;6.90;80.00;;;;;;5042964;28;20050;-76
2023/12/16 04:18:37;;;;;;;11.82;2.00;;;6.90;79.90;;;;;;5043694;28;20054;-76
2023/12/16 04:21:04;;;;;;;8.23;1.50;;;6.90;79.80;;;;;;5017966;28;20582;-76
2023/12/16 04:23:31;;;;;;;9.60;1.50;;;6.90;79.90;;;;;;5040657;28;20057;-76
2023/12/16 04:26:00;;;;;;;8.75;1.80;;;6.80;80.00;;;;;;5042953;28;20280;-75
2023/12/16 04:28:27;;;;;;;9.10;1.45;;;6.80;80.00;;;;;;5032602;28;20177;-76
2023/12/16 04:30:54;;;;;;;12.52;2.10;;;6.80;80.00;;;;;;5040792;28;20050;-76
2023/12/16 04:33:21;;;;;;;12.65;1.88;;;6.80;80.10;;;;;;5041910;28;20050;-76
2023/12/16 04:35:48;;;;;;;11.37;2.00;;;6.80;80.20;;;;;;5019061;28;20542;-76
2023/12/16 04:38:15;;;;;;;9.93;1.73;;;6.80;80.10;;;;;;5041387;28;20257;-76
2023/12/16 04:40:42;;;;;;;9.57;1.77;;;6.80;80.20;;;;;;5036077;28;20049;-76
2023/12/16 04:43:11;;;;;;;11.10;2.10;;;6.80;80.30;;;;;;5041730;28;20053;-76
2023/12/16 04:45:38;;;;;;;12.30;1.90;;;6.80;80.50;;;;;;5039704;28;20072;-76
2023/12/16 04:48:05;;;;;;;13.23;2.50;;;6.80;80.50;;;;;;5045050;28;20083;-76
2023/12/16 04:50:32;;;;;;;12.73;2.42;;;6.80;80.50;;;;;;5038354;28;21137;-76
2023/12/16 04:52:59;;;;;;;8.20;1.85;;;6.80;80.70;;;;;;5041339;28;20665;-76
2023/12/16 04:55:27;;;;;;;8.85;1.65;;;6.80;80.90;;;;;;5042505;28;20045;-76
2023/12/16 04:57:54;;;;;;;11.85;2.08;;;6.80;81.00;;;;;;5045341;28;20061;-76
2023/12/16 05:00:22;;;;;;;14.40;2.10;;;6.80;81.20;;;;;;5045240;28;21010;-76
2023/12/16 05:02:50;;;;;;;8.18;1.63;;;6.80;81.20;;;;;;5036965;28;20344;-76
2023/12/16 05:05:17;;;;;;;10.30;2.50;;;6.80;81.30;;;;;;5016393;28;20101;-76
2023/12/16 05:07:44;;;;;;;8.95;2.22;;;6.80;81.40;;;;;;5033893;28;20152;-76
2023/12/16 05:10:11;;;;;;;8.93;2.17;;;6.80;81.50;;;;;;5034487;28;20054;-76
2023/12/16 05:12:40;;;;;;;10.73;2.10;;;6.80;81.60;;;;;;5029343;28;20997;-76
2023/12/16 05:15:07;;;;;;;12.85;2.20;;;6.80;81.70;;;;;;5040227;28;20271;-76
2023/12/16 05:17:36;;;;;;;12.27;2.67;;;6.80;81.80;;;;;;5038272;28;20049;-76
2023/12/16 05:20:04;;;;;;;16.17;2.60;;;6.80;81.90;;;;;;5035489;28;20053;-76
2023/12/16 05:22:33;;;;;;;11.73;2.03;;;6.90;81.90;;;;;;5046806;28;20156;-76
2023/12/16 05:25:01;;;;;;;13.27;2.27;;;6.90;82.00;;;;;;5041059;28;20061;-75
2023/12/16 05:27:29;;;;;;;10.55;2.20;;;6.90;82.10;;;;;;5043446;28;20769;-76
2023/12/16 05:29:57;;;;;;;11.48;2.85;;;6.90;82.10;;;;;;5040509;28;20063;-76
2023/12/16 05:32:26;;;;;;;12.90;2.35;;;6.90;82.30;;;;;;5041111;28;20987;-76
2023/12/16 05:34:54;;;;;;;11.50;2.65;;;6.90;82.50;;;;;;5038559;28;20503;-75
2023/12/16 05:37:21;;;;;;;12.40;2.50;;;6.90;82.50;;;;;;5041436;28;20060;-76
2023/12/16 05:39:48;;;;;;;11.93;2.45;;;6.90;82.60;;;;;;5045004;28;20344;-76
2023/12/16 05:42:15;;;;;;;12.15;3.15;;;6.90;82.60;;;;;;5032123;28;20918;-75
2023/12/16 05:44:42;;;;;;;14.50;2.50;;;6.90;82.80;;;;;;5037446;28;20057;-76
2023/12/16 05:47:09;;;;;;;14.80;2.95;;;6.90;82.90;;;;;;5034525;28;20073;-75
2023/12/16 05:49:36;;;;;;;15.07;3.40;;;6.90;83.00;;;;;;5038720;28;20141;-76
2023/12/16 05:52:06;;;;;;;9.52;2.53;;;7.00;83.00;;;;;;5041896;28;20272;-76
2023/12/16 05:54:34;;;;;;;16.48;3.20;;;7.00;83.00;;;;;;5038753;28;20735;-76
2023/12/16 05:57:01;;;;;;;15.82;2.88;;;7.00;83.10;;;;;;5039921;28;20053;-76
2023/12/16 05:59:28;;;;;;;11.13;2.83;;;7.00;83.10;;;;;;5044683;28;20571;-75
2023/12/16 06:01:55;;;;;;;14.03;3.20;;;7.00;83.20;;;;;;5038067;28;20046;-76
2023/12/16 06:04:22;;;;;;;11.25;2.97;;;7.00;83.20;;;;;;5045259;28;20284;-76
2023/12/16 06:06:49;;;;;;;11.23;2.70;;;6.90;83.30;;;;;;5039964;28;20045;-75
2023/12/16 06:09:18;;;;;;;11.57;2.88;;;6.90;83.40;;;;;;5042453;28;20601;-76
2023/12/16 06:11:45;;;;;;;10.77;2.92;;;6.90;83.50;;;;;;5045837;28;20811;-75
2023/12/16 06:14:13;;;;;;;14.10;2.93;;;6.90;83.50;;;;;;5041040;28;20050;-75
2023/12/16 06:16:40;;;;;;;14.32;3.33;;;6.90;83.50;;;;;;5041439;28;20730;-75
2023/12/16 06:19:07;;;;;;;13.75;3.10;;;6.90;83.60;;;;;;5041091;28;20241;-75
2023/12/16 06:21:45;;;;;;;12.85;2.78;;;6.90;83.60;;;;;;5032739;28;20059;-75
2023/12/16 06:24:12;;;;;;;11.00;2.67;;;6.90;83.70;;;;;;5058044;28;20049;-75
2023/12/16 06:26:40;;;;;;;12.40;2.80;;;6.90;83.70;;;;;;5041288;28;20054;-75
2023/12/16 06:29:08;;;;;;;16.27;3.22;;;6.90;83.80;;;;;;5038281;28;21325;-75
2023/12/16 06:31:35;;;;;;;16.73;3.47;;;6.90;83.90;;;;;;5040583;28;20103;-76
2023/12/16 06:34:02;;;;;;;11.82;2.88;;;6.90;83.90;;;;;;5041853;28;20475;-76
2023/12/16 06:36:29;;;;;;;12.73;3.10;;;6.90;84.00;;;;;;5035480;28;20156;-75
2023/12/16 06:38:56;;;;;;;12.20;3.30;;;6.90;84.10;;;;;;5037097;28;20053;-75
2023/12/16 06:41:23;;;;;;;14.45;3.60;;;6.80;84.10;;;;;;5045690;28;20257;-75
2023/12/16 06:43:52;;;;;;;12.07;2.95;;;6.80;84.10;;;;;;5039728;28;20041;-76
2023/12/16 06:46:19;;;;;;;11.52;2.80;;;6.80;84.20;;;;;;5041607;28;20129;-76
2023/12/16 06:48:46;;;;;;;17.00;3.45;;;6.80;84.30;;;;;;5043506;28;20061;-76
2023/12/16 06:51:13;;;;;;;14.87;3.33;;;6.80;84.20;;;;;;5043300;28;20053;-75
2023/12/16 06:53:40;;;;;;;11.98;3.35;;;6.80;84.30;;;;;;5059689;28;20849;-76
2023/12/16 06:56:08;;;;;;;16.60;3.28;;;6.80;84.40;;;;;;5042906;28;20069;-75
2023/12/16 06:58:36;;;;;;;13.68;3.35;;;6.80;84.50;;;;;;5043285;28;20497;-75
2023/12/16 07:01:04;;;;;;;14.43;3.60;;;6.80;84.50;;;;;;5042822;28;20050;-75
2023/12/16 07:03:31;;;;;;;15.17;3.27;;;6.80;84.60;;;;;;5044929;28;20045;-75
2023/12/16 07:05:58;;;;;;;13.40;3.55;;;6.80;84.60;;;;;;5044571;28;20249;-75
2023/12/16 07:08:25;;;;;;;13.57;3.20;;;6.80;84.70;;;;;;5048564;28;20467;-75
2023/12/16 07:10:53;;;;;;;15.35;3.28;;;6.80;84.70;;;;;;5047047;28;20055;-76
2023/12/16 07:13:20;;;;;;;12.95;3.33;;;6.80;84.90;;;;;;5050418;28;20055;-76
2023/12/16 07:15:47;;;;;;;17.73;3.70;;;6.80;85.00;;;;;;5046736;28;20045;-75
2023/12/16 07:18:15;;;;;;;14.18;4.40;;;6.80;85.00;;;;;;5040699;28;20256;-75
2023/12/16 07:20:42;;;;;;;17.40;3.30;;;6.80;85.10;;;;;;5045094;28;20494;-75
2023/12/16 07:23:11;;;;;;;15.07;3.08;;;6.80;85.20;;;;;;5045729;28;20160;-75
2023/12/16 07:25:40;;;;;;;15.88;3.72;;;6.80;85.30;;;;;;5046627;28;20104;-75
2023/12/16 07:28:07;;;;;;;17.37;4.03;;;6.80;85.40;;;;;;5047793;28;20057;-75
2023/12/16 07:30:34;;;;;;;15.75;4.25;;;6.90;85.50;;;;;;5026108;28;20257;-75
2023/12/16 07:33:01;;;;;;;15.63;3.80;;;6.90;85.50;;;;;;5046737;28;20569;-75
2023/12/16 07:35:30;;;;;;;19.15;3.70;;;6.90;85.50;;;;;;5045974;28;20053;-75
2023/12/16 07:37:57;;;;;;;14.70;3.65;;;6.90;85.60;;;;;;5047143;28;20891;-75
2023/12/16 07:40:24;;;;;;;17.17;3.80;;;6.90;85.60;;;;;;5043156;28;20050;-76
2023/12/16 07:42:51;;;;;;;15.52;3.72;;;6.90;85.70;;;;;;5044652;28;20292;-75
2023/12/16 07:45:18;;;;;;;20.45;4.63;;;6.90;85.80;;;;;;5051546;28;20054;-75
2023/12/16 07:47:45;;;;;;;19.20;4.55;;;7.00;85.80;;;;;;5039157;28;20050;-75
2023/12/16 07:50:16;;;;;;;16.05;4.80;;;7.00;85.80;;;;;;5039913;28;20041;-75
2023/12/16 07:52:46;;;;;;;15.57;3.50;;;7.00;85.90;;;;;;5045680;28;20053;-76
2023/12/16 07:55:13;;;;;;;18.85;4.05;;;7.00;85.80;;;;;;5045516;28;20253;-76
2023/12/16 07:57:40;;;;;;;13.27;3.90;;;7.00;86.00;;;;;;5056312;28;20085;-76
2023/12/16 08:00:09;;;;;;;19.35;4.97;;;7.00;86.20;;;;;;5044222;28;20092;-76
2023/12/16 08:02:36;;;;;;;15.85;4.00;;;7.00;86.00;;;;;;5033445;28;20057;-76
2023/12/16 08:05:04;;;;;;;15.27;3.77;;;7.00;86.00;;;;;;5036383;28;20127;-77
2023/12/16 08:07:31;;;;;;;14.25;4.30;;;7.00;86.10;;;;;;5034122;28;20272;-76
2023/12/16 08:09:59;;;;;;;15.85;3.72;;;7.00;86.10;;;;;;5046745;28;20054;-77
2023/12/16 08:12:26;;;;;;;10.70;3.33;;;7.00;86.20;;;;;;5038269;28;20041;-76
2023/12/16 08:14:53;;;;;;;15.00;3.90;;;7.00;86.10;;;;;;5043101;28;20154;-76
2023/12/16 08:17:20;;;;;;;13.40;3.93;;;7.00;86.20;;;;;;5036617;28;20060;-76
2023/12/16 08:19:47;;;;;;;13.88;4.00;;;7.00;86.20;;;;;;5047538;28;20252;-76
2023/12/16 08:22:14;;;;;;;19.38;3.90;;;7.00;86.10;;;;;;5054273;28;20057;-76
2023/12/16 08:24:41;;;;;;;18.83;4.82;;;7.00;86.20;;;;;;5036266;28;20052;-75
2023/12/16 08:27:10;;;;;;;17.50;4.28;;;7.00;86.40;;;;;;5055970;28;20071;-76
2023/12/16 08:29:37;;;;;;;16.20;4.30;;;7.00;86.30;;;;;;5034040;28;20644;-76
2023/12/16 08:32:05;;;;;;;17.02;4.30;;;7.00;86.30;;;;;;5055698;28;20792;-76
2023/12/16 08:34:33;;;;;;;16.10;3.72;;;7.00;86.40;;;;;;5032145;28;20831;-76
2023/12/16 08:37:00;;;;;;;14.20;3.53;;;7.00;86.30;;;;;;5048468;28;20111;-76
2023/12/16 08:39:28;;;;;;;17.95;4.28;;;7.10;86.40;;;;;;5050612;28;20046;-76
2023/12/16 08:41:55;;;;;;;13.90;3.77;;;7.00;86.40;;;;;;5047053;28;20049;-76
2023/12/16 08:44:23;;;;;;;17.45;5.10;;;7.00;86.40;;;;;;5045213;28;20256;-76
2023/12/16 08:46:50;;;;;;;13.98;4.25;;;7.10;86.40;;;;;;5044540;28;20696;-75
2023/12/16 08:49:17;;;;;;;15.50;4.35;;;7.10;86.50;;;;;;5042321;28;20053;-75
2023/12/16 08:51:45;;;;;;;15.93;4.05;;;7.00;86.60;;;;;;5046935;28;20137;-75
2023/12/16 08:54:12;;;;;;;19.63;5.43;;;7.10;86.70;;;;;;5040756;28;20081;-75
2023/12/16 08:56:39;;;;;;;19.65;4.82;;;7.20;86.80;;;;;;5044885;28;20296;-75
2023/12/16 08:59:06;;;;;;;18.13;4.22;;;7.20;86.80;;;;;;5043993;28;20053;-75
2023/12/16 09:01:34;;;;;;;17.27;4.82;;;7.20;86.90;;;;;;5045661;28;20056;-75
2023/12/16 09:04:01;;;;;;;16.13;3.97;;;7.20;87.00;;;;;;5043070;28;20064;-75
2023/12/16 09:06:28;;;;;;;20.10;5.13;;;7.20;86.90;;;;;;5044895;28;20064;-75
2023/12/16 09:08:55;;;;;;;17.80;4.53;;;7.20;86.90;;;;;;5044841;28;20348;-76
2023/12/16 09:11:22;;;;;;;16.83;5.15;;;7.20;87.00;;;;;;5043678;28;20053;-75
2023/12/16 09:13:49;;;;;;;17.55;4.07;;;7.20;87.00;;;;;;5045514;28;20056;-75
2023/12/16 09:16:15;;;;;;;19.58;4.38;;;7.30;87.10;;;;;;5045041;28;20607;-75
2023/12/16 09:18:44;;;;;;;20.53;5.27;;;7.40;87.20;;;;;;5046204;28;20077;-75
2023/12/16 09:21:15;;;;;;;21.17;4.32;;;7.40;87.20;;;;;;5024744;28;20354;-75
2023/12/16 09:23:42;;;;;;;20.45;4.20;;;7.40;87.20;;;;;;5026153;28;20073;-75
2023/12/16 09:26:09;;;;;;;21.92;4.53;;;7.40;87.30;;;;;;5045529;28;20124;-73
2023/12/16 09:28:36;;;;;;;19.00;4.28;;;7.40;87.50;;;;;;5052185;28;20060;-74
2023/12/16 09:31:03;;;;;;;20.17;4.80;;;7.50;87.60;;;;;;5052995;28;20060;-75
2023/12/16 09:33:29;;;;;;;24.30;5.15;;;7.50;87.70;;;;;;5042669;28;20801;-74
2023/12/16 09:35:58;;;;;;;17.15;4.22;;;7.50;87.70;;;;;;5044975;28;20502;-74
2023/12/16 09:38:25;;;;;;;21.30;4.45;;;7.50;87.70;;;;;;5046000;28;20050;-74
2023/12/16 09:40:52;;;;;;;23.25;4.97;;;7.50;87.90;;;;;;5048918;28;20057;-75
2023/12/16 09:43:21;;;;;;;21.50;4.30;;;7.50;87.90;;;;;;5047476;28;20049;-74
2023/12/16 09:45:48;;;;;;;17.58;4.53;;;7.50;87.90;;;;;;5048127;28;20253;-75
2023/12/16 09:48:17;;;;;;;20.08;4.60;;;7.50;87.90;;;;;;5048376;28;20061;-74
2023/12/16 09:50:44;;;;;;;19.92;4.40;;;7.50;88.00;;;;;;5048789;28;20057;-75
2023/12/16 09:53:13;;;;;;;18.83;4.93;;;7.60;88.00;;;;;;5047939;28;20053;-74
2023/12/16 09:55:41;;;;;;;18.07;4.40;;;7.60;88.10;;;;;;5047277;28;20095;-74
2023/12/16 09:58:11;;;;;;;22.58;4.65;;;7.60;88.20;;;;;;5049326;28;20260;-74
2023/12/16 10:00:45;;;;;;;19.38;5.43;;;7.60;88.10;;;;;;5049403;28;20059;-74
2023/12/16 10:03:13;;;;;;;26.38;6.55;;;7.60;88.20;;;;;;5047398;28;20089;-74
2023/12/16 10:05:42;;;;;;;20.38;5.60;;;7.70;88.20;;;;;;5047727;28;20045;-75
2023/12/16 10:08:09;;;;;;;30.13;7.00;;;7.70;88.20;;;;;;5049619;28;20056;-74
2023/12/16 10:10:37;;;;;;;21.08;5.70;;;7.70;88.50;;;;;;5047647;28;20708;-75
2023/12/16 10:13:05;;;;;;;25.52;6.30;;;7.80;88.50;;;;;;5048668;28;20049;-76
2023/12/16 10:15:33;;;;;;;24.75;6.95;;;7.80;88.50;;;;;;5048147;28;20083;-75
2023/12/16 10:18:01;;;;;;;24.27;6.57;;;7.80;88.70;;;;;;5048220;28;20363;-76
2023/12/16 10:20:29;;;;;;;25.40;8.27;;;7.80;88.70;;;;;;5047300;28;20053;-76
2023/12/16 10:22:57;;;;;;;26.85;7.38;;;7.80;89.10;;;;;;5047718;28;20348;-76
2023/12/16 10:25:24;;;;;;;28.80;7.93;;;7.80;89.10;;;;;;5048026;28;20064;-75
2023/12/16 10:28:00;;;;;;;31.88;8.23;;;7.80;89.20;;;;;;5027538;28;20058;-73
2023/12/16 10:30:27;;;;;;;26.70;7.65;;;7.80;89.30;;;;;;5027522;28;20060;-73
2023/12/16 10:32:56;;;;;;;29.53;8.07;;;7.80;89.40;;;;;;5048092;28;20444;-73
2023/12/16 10:35:27;;;;;;;25.30;8.02;;;7.80;89.40;;;;;;5048928;28;20270;-73
2023/12/16 10:37:54;;;;;;;24.85;7.70;;;7.80;89.50;;;;;;5047163;28;20152;-73
2023/12/16 10:40:22;;;;;;;24.02;7.70;;;7.80;89.50;;;;;;5047783;28;20054;-74
2023/12/16 10:42:49;;;;;;;24.42;7.25;;;7.80;89.70;;;;;;5047903;28;20046;-73
2023/12/16 10:45:17;;;;;;;28.40;8.70;;;7.80;89.70;;;;;;5046843;28;20704;-73
2023/12/16 10:47:48;;;;;;;32.00;10.50;;;7.80;89.70;;;;;;5029519;28;20260;-73
2023/12/16 10:50:16;;;;;;;31.13;10.15;;;7.90;90.10;;;;;;5043308;28;20676;-73
2023/12/16 10:52:49;;;;;;;19.35;5.72;;;7.80;90.00;;;;;;5029304;28;20487;-73
2023/12/16 10:55:21;;;;;;;30.40;9.55;;;7.80;90.00;;;;;;5027038;28;20133;-73
2023/12/16 10:57:53;;;;;;;23.40;7.73;;;7.90;90.20;;;;;;5046285;28;20137;-73
2023/12/16 11:00:24;;;;;;;25.70;9.77;;;7.80;90.30;;;;;;5046027;28;20375;-73
2023/12/16 11:03:03;;;;;;;33.13;9.20;;;7.80;90.30;;;;;;5047490;28;20144;-73
2023/12/16 11:05:34;;;;;;;27.40;9.25;;;7.80;90.50;;;;;;5045250;28;20501;-73
2023/12/16 11:08:02;;;;;;;24.80;8.68;;;7.80;90.50;;;;;;5047764;28;20337;-73
2023/12/16 11:10:30;;;;;;;24.10;8.87;;;7.80;90.70;;;;;;5046500;28;20539;-73
2023/12/16 11:12:58;;;;;;;27.50;9.82;;;7.80;91.00;;;;;;5046514;28;20259;-73
2023/12/16 11:15:28;;;;;;;18.80;6.57;;;7.90;90.90;;;;;;5046295;28;20041;-72
2023/12/16 11:17:58;;;;;;;22.58;7.88;;;7.90;91.00;;;;;;5046374;28;20081;-72
2023/12/16 11:20:33;;;;;;;27.17;9.05;;;7.80;91.00;;;;;;5043375;28;20054;-72
2023/12/16 11:23:00;;;;;;;21.10;9.33;;;7.90;91.20;;;;;;5043721;28;20048;-72
2023/12/16 11:25:27;;;;;;;30.80;10.73;;;7.90;91.20;;;;;;5022183;28;20276;-72
2023/12/16 11:27:56;;;;;;;22.17;8.98;;;7.90;91.40;;;;;;5039242;28;20050;-72
2023/12/16 11:30:23;;;;;;;26.95;10.32;;;8.00;91.40;;;;;;5041922;28;20050;-73
2023/12/16 11:32:54;;;;;;;24.45;8.63;;;8.00;91.50;;;;;;5043336;28;20057;-73
2023/12/16 11:35:47;;;;;;;28.47;9.87;;;8.00;91.50;;;;;;5037974;28;20137;-73
2023/12/16 11:38:41;;;;;;;22.05;8.25;;;8.00;91.60;;;;;;5037988;28;21331;-73
2023/12/16 11:41:10;;;;;;;27.63;9.90;;;8.00;91.60;;;;;;5042287;28;20899;-73
2023/12/16 11:43:54;;;;;;;24.05;9.52;;;7.90;91.60;;;;;;5020108;28;20053;-74
2023/12/16 11:46:44;;;;;;;27.60;10.65;;;7.90;91.70;;;;;;5017068;28;20053;-73
2023/12/16 11:49:15;;;;;;;23.47;7.67;;;8.00;91.90;;;;;;5043163;28;20053;-74
2023/12/16 11:51:42;;;;;;;19.75;8.68;;;8.00;91.90;;;;;;5043139;28;20335;-73
2023/12/16 11:54:11;;;;;;;24.85;9.70;;;8.00;91.90;;;;;;5043967;28;20049;-73
2023/12/16 11:56:38;;;;;;;20.88;9.32;;;8.00;91.80;;;;;;5043461;28;20057;-73
2023/12/16 11:59:07;;;;;;;20.08;7.03;;;8.00;91.90;;;;;;5043821;28;20546;-73
2023/12/16 12:01:35;;;;;;;28.87;11.23;;;8.00;91.90;;;;;;5035152;28;20072;-73
2023/12/16 12:04:03;;;;;;;14.20;5.82;;;8.00;92.00;;;;;;5056629;28;20903;-73
2023/12/16 12:06:32;;;;;;;25.48;10.43;;;8.00;92.10;;;;;;5043573;28;20061;-73
2023/12/16 12:08:59;;;;;;;17.30;8.38;;;8.00;92.10;;;;;;5042803;28;20783;-73
2023/12/16 12:11:26;;;;;;;20.52;8.07;;;8.00;92.10;;;;;;5034097;28;21026;-73
2023/12/16 12:13:55;;;;;;;20.10;8.80;;;8.00;92.10;;;;;;5046198;28;20505;-73
2023/12/16 12:16:23;;;;;;;20.30;8.20;;;8.00;92.20;;;;;;5044339;28;20306;-72
2023/12/16 12:18:50;;;;;;;17.83;7.18;;;8.00;92.20;;;;;;5041945;28;20158;-74
2023/12/16 12:21:17;;;;;;;21.58;9.57;;;8.00;92.40;;;;;;5045235;28;20141;-72
2023/12/16 12:23:45;;;;;;;24.30;9.88;;;8.00;92.40;;;;;;5043994;28;20119;-72
2023/12/16 12:26:12;;;;;;;20.43;8.90;;;8.00;92.60;;;;;;5040436;28;20051;-72
2023/12/16 12:28:39;;;;;;;16.42;6.68;;;8.00;92.40;;;;;;5058187;28;20249;-72
2023/12/16 12:31:08;;;;;;;20.67;7.47;;;8.00;92.50;;;;;;5042106;28;20052;-72
2023/12/16 12:33:36;;;;;;;17.33;6.82;;;8.10;92.50;;;;;;5041990;28;20045;-72
2023/12/16 12:36:04;;;;;;;11.63;4.95;;;8.10;92.60;;;;;;5047228;28;20045;-71
2023/12/16 12:38:33;;;;;;;22.43;9.90;;;8.10;92.70;;;;;;5036669;28;20042;-72
2023/12/16 12:41:04;;;;;;;22.88;9.38;;;8.10;92.60;;;;;;5043288;28;20292;-73
2023/12/16 12:43:33;;;;;;;22.55;9.13;;;8.10;92.70;;;;;;5042420;28;20071;-73
2023/12/16 12:46:08;;;;;;;18.63;8.50;;;8.10;92.80;;;;;;5045243;28;20057;-73
2023/12/16 12:48:36;;;;;;;15.43;6.63;;;8.20;92.90;;;;;;5045680;28;20085;-73
2023/12/16 12:51:05;;;;;;;20.00;7.97;;;8.20;92.90;;;;;;5044312;28;20068;-73
2023/12/16 12:53:35;;;;;;;18.75;7.78;;;8.20;93.00;;;;;;5043932;28;20252;-72